createdAt,value
2022-07-31T00:00:28.989Z,97146.84
2022-07-31T00:02:57.891Z,97157.84
2022-07-31T00:05:26.500Z,97156.56
2022-07-31T00:07:55.405Z,97159.84
2022-07-31T00:10:24.095Z,97169.88
2022-07-31T00:12:52.530Z,97174.38
2022-07-31T00:15:20.940Z,97168.06
2022-07-31T00:17:49.505Z,97161.53
2022-07-31T00:20:18.317Z,97162.88
2022-07-31T00:22:48.015Z,97168.78
2022-07-31T00:25:16.670Z,97166.75
2022-07-31T00:27:45.349Z,97164.91
2022-07-31T00:30:14.107Z,97182.72
2022-07-31T00:32:42.507Z,97182.06
2022-07-31T00:35:12.507Z,97184.25
2022-07-31T00:37:41.812Z,97179.59
2022-07-31T00:40:12.346Z,97183.47
2022-07-31T00:42:40.880Z,97183.84
2022-07-31T00:45:10.139Z,97197.59
2022-07-31T00:47:42.569Z,97193.38
2022-07-31T00:50:11.635Z,97201.38
2022-07-31T00:52:40.675Z,97200.31
2022-07-31T00:55:09.468Z,97215.50
2022-07-31T00:57:37.904Z,97215.59
2022-07-31T01:00:06.954Z,97211.88
2022-07-31T01:02:35.813Z,97218.84
2022-07-31T01:05:04.571Z,97220.50
2022-07-31T01:07:32.950Z,97221.16
2022-07-31T01:10:02.750Z,97220.03
2022-07-31T01:12:39.457Z,97225.94
2022-07-31T01:15:10.751Z,97236.59
2022-07-31T01:17:39.129Z,97242.06
2022-07-31T01:20:09.065Z,97226.53
2022-07-31T01:22:57.950Z,97228.53
2022-07-31T01:25:44.089Z,97225.06
2022-07-31T01:28:57.304Z,97231.34
2022-07-31T01:31:28.254Z,97238.19
2022-07-31T01:34:08.598Z,97221.03
2022-07-31T01:36:37.782Z,97221.44
2022-07-31T01:39:07.017Z,97225.59
2022-07-31T01:41:41.351Z,97225.44
2022-07-31T01:44:14.030Z,97225.75
2022-07-31T01:46:44.240Z,97213.44
2022-07-31T01:49:13.746Z,97216.91
2022-07-31T01:51:43.599Z,97210.97
2022-07-31T01:54:13.109Z,97218.75
2022-07-31T01:56:41.645Z,97212.19
2022-07-31T01:59:12.345Z,97212.06
2022-07-31T02:02:10.933Z,97214.53
2022-07-31T02:04:39.425Z,97204.44
2022-07-31T02:07:11.380Z,97200.88
2022-07-31T02:09:57.956Z,97214.56
2022-07-31T02:12:33.735Z,97208.22
2022-07-31T02:15:05.693Z,97220.09
2022-07-31T02:17:35.364Z,97218.69
2022-07-31T02:20:33.039Z,97218.69
2022-07-31T02:23:01.874Z,97212.09
2022-07-31T02:25:30.410Z,97210.47
2022-07-31T02:28:08.529Z,97216.28
2022-07-31T02:30:38.892Z,97221.66
2022-07-31T02:33:19.093Z,97210.19
2022-07-31T02:35:54.219Z,97212.34
2022-07-31T02:38:26.594Z,97212.97
2022-07-31T02:41:01.993Z,97214.84
2022-07-31T02:43:32.051Z,97196.94
2022-07-31T02:46:05.072Z,97195.63
2022-07-31T02:48:33.696Z,97206.78
2022-07-31T02:51:05.815Z,97205.19
2022-07-31T02:53:34.446Z,97209.47
2022-07-31T02:56:09.617Z,97206.69
2022-07-31T02:58:43.502Z,97209.03
2022-07-31T03:01:23.326Z,97211.38
2022-07-31T03:03:51.896Z,97216.75
2022-07-31T03:06:20.200Z,97215.13
2022-07-31T03:08:49.599Z,97216.94
2022-07-31T03:11:22.070Z,97218.81
2022-07-31T03:13:50.450Z,97212.19
2022-07-31T03:16:18.754Z,97208.63
2022-07-31T03:18:47.145Z,97212.09
2022-07-31T03:21:15.432Z,97217.69
2022-07-31T03:23:43.883Z,97209.03
2022-07-31T03:26:20.871Z,97207.41
2022-07-31T03:28:49.274Z,97226.84
2022-07-31T03:31:17.874Z,97219.22
2022-07-31T03:33:46.466Z,97225.53
2022-07-31T03:36:16.674Z,97227.81
2022-07-31T03:38:50.161Z,97229.03
2022-07-31T03:41:26.471Z,97224.34
2022-07-31T03:43:55.357Z,97222.38
2022-07-31T03:46:24.052Z,97231.03
2022-07-31T03:48:53.154Z,97237.53
2022-07-31T03:51:23.553Z,97233.59
2022-07-31T03:53:52.329Z,97236.50
2022-07-31T03:56:40.772Z,97235.63
2022-07-31T03:59:15.146Z,97245.09
2022-07-31T04:01:58.064Z,97236.56
2022-07-31T04:04:37.929Z,97242.91
2022-07-31T04:07:07.341Z,97244.03
2022-07-31T04:09:35.773Z,97246.59
2022-07-31T04:12:06.671Z,97234.94
2022-07-31T04:14:35.481Z,97239.66
2022-07-31T04:17:03.908Z,97246.81
2022-07-31T04:19:32.814Z,97243.00
2022-07-31T04:22:01.963Z,97242.59
2022-07-31T04:24:32.013Z,97244.53
2022-07-31T04:27:26.482Z,97247.09
2022-07-31T04:29:55.887Z,97251.56
2022-07-31T04:32:25.525Z,97255.91
2022-07-31T04:34:56.476Z,97254.34
2022-07-31T04:37:25.725Z,97258.50
2022-07-31T04:39:54.534Z,97249.78
2022-07-31T04:42:22.884Z,97252.25
2022-07-31T04:44:51.407Z,97252.84
2022-07-31T04:47:23.127Z,97251.91
2022-07-31T04:49:53.065Z,97256.56
2022-07-31T04:52:22.549Z,97250.91
2022-07-31T04:54:53.169Z,97250.78
2022-07-31T04:57:22.291Z,97248.53
2022-07-31T04:59:59.381Z,97242.00
2022-07-31T05:02:31.643Z,97241.63
2022-07-31T05:05:00.160Z,97238.91
2022-07-31T05:07:34.889Z,97247.06
2022-07-31T05:10:09.099Z,97256.91
2022-07-31T05:12:37.794Z,97254.59
2022-07-31T05:15:07.310Z,97256.88
2022-07-31T05:17:35.998Z,97268.16
2022-07-31T05:20:39.766Z,97264.38
2022-07-31T05:23:26.964Z,97265.13
2022-07-31T05:26:05.719Z,97274.47
2022-07-31T05:28:34.436Z,97265.03
2022-07-31T05:31:05.217Z,97261.13
2022-07-31T05:33:34.104Z,97262.47
2022-07-31T05:36:04.144Z,97275.50
2022-07-31T05:38:32.602Z,97261.75
2022-07-31T05:41:31.145Z,97270.59
2022-07-31T05:44:17.767Z,97270.91
2022-07-31T05:49:19.057Z,97272.00
2022-07-31T05:51:54.627Z,97262.38
2022-07-31T05:54:23.094Z,97273.84
2022-07-31T05:57:10.251Z,97264.09
2022-07-31T05:59:43.380Z,97263.09
2022-07-31T06:02:12.567Z,97259.25
2022-07-31T06:05:03.871Z,97253.44
2022-07-31T06:07:32.449Z,97259.09
2022-07-31T06:10:03.103Z,97254.53
2022-07-31T06:12:31.900Z,97248.34
2022-07-31T06:15:02.546Z,97248.56
2022-07-31T06:17:44.651Z,97244.56
2022-07-31T06:20:25.119Z,97243.84
2022-07-31T06:22:54.204Z,97244.41
2022-07-31T06:25:23.173Z,97241.47
2022-07-31T06:27:59.367Z,97232.94
2022-07-31T06:30:29.470Z,97242.50
2022-07-31T06:32:57.856Z,97236.66
2022-07-31T06:35:27.223Z,97239.94
2022-07-31T06:38:13.991Z,97244.41
2022-07-31T06:41:02.401Z,97251.81
2022-07-31T06:43:39.480Z,97253.84
2022-07-31T06:46:26.502Z,97251.31
2022-07-31T06:51:52.841Z,97248.47
2022-07-31T06:54:21.222Z,97250.34
2022-07-31T06:56:56.479Z,97240.28
2022-07-31T06:59:39.306Z,97239.31
2022-07-31T07:02:09.360Z,97242.63
2022-07-31T07:05:05.190Z,97241.81
2022-07-31T07:07:31.971Z,97247.56
2022-07-31T07:10:02.422Z,97240.16
2022-07-31T07:15:26.458Z,97238.69
2022-07-31T07:17:56.382Z,97239.88
2022-07-31T07:20:36.847Z,97244.03
2022-07-31T07:23:05.392Z,97252.97
2022-07-31T07:25:41.216Z,97249.13
2022-07-31T07:28:16.649Z,97241.38
2022-07-31T07:31:03.572Z,97238.88
2022-07-31T07:33:41.813Z,97244.97
2022-07-31T07:36:24.269Z,97246.53
2022-07-31T07:38:58.097Z,97242.75
2022-07-31T07:41:26.754Z,97257.06
2022-07-31T07:43:55.444Z,97249.56
2022-07-31T07:46:28.667Z,97251.72
2022-07-31T07:49:04.682Z,97251.00
2022-07-31T07:51:59.953Z,97257.66
2022-07-31T07:54:43.627Z,97255.22
2022-07-31T07:57:19.368Z,97258.31
2022-07-31T08:00:11.370Z,97255.28
2022-07-31T08:03:50.377Z,97260.59
2022-07-31T08:05:40.064Z,97261.50
2022-07-31T08:08:12.644Z,97268.16
2022-07-31T08:10:50.189Z,97281.56
2022-07-31T08:13:41.455Z,97273.63
2022-07-31T08:16:12.400Z,97263.09
2022-07-31T08:18:46.224Z,97272.75
2022-07-31T08:21:14.766Z,97277.00
2022-07-31T08:23:43.405Z,97285.56
2022-07-31T08:26:13.868Z,97282.69
2022-07-31T08:28:50.163Z,97285.00
2022-07-31T08:31:20.425Z,97292.28
2022-07-31T08:34:31.115Z,97282.84
2022-07-31T08:37:52.552Z,97286.66
2022-07-31T08:39:50.948Z,97282.78
2022-07-31T08:42:19.606Z,97290.66
2022-07-31T08:44:49.405Z,97279.47
2022-07-31T08:47:20.828Z,97277.56
2022-07-31T08:49:50.544Z,97282.38
2022-07-31T08:52:25.876Z,97281.72
2022-07-31T09:12:08.206Z,97277.31
2022-07-31T09:15:25.119Z,97268.94
2022-07-31T09:17:54.998Z,97269.50
2022-07-31T09:20:26.385Z,97272.84
2022-07-31T09:23:10.403Z,97262.97
2022-07-31T09:26:00.515Z,97250.19
2022-07-31T09:28:40.837Z,97239.03
2022-07-31T09:31:11.409Z,97233.06
2022-07-31T09:34:06.634Z,97236.59
2022-07-31T09:36:35.261Z,97237.22
2022-07-31T09:39:27.743Z,97232.56
2022-07-31T09:42:16.766Z,97226.69
2022-07-31T09:44:53.408Z,97225.16
2022-07-31T09:47:33.588Z,97220.97
2022-07-31T09:50:05.911Z,97226.00
2022-07-31T09:52:36.511Z,97226.91
2022-07-31T09:55:16.418Z,97220.56
2022-07-31T09:58:06.039Z,97219.22
2022-07-31T10:00:42.608Z,97218.19
2022-07-31T10:03:11.770Z,97216.91
2022-07-31T10:05:45.110Z,97211.97
2022-07-31T10:08:23.737Z,97205.25
2022-07-31T10:11:16.607Z,97209.38
2022-07-31T10:14:00.967Z,97196.25
2022-07-31T10:16:32.277Z,97193.44
2022-07-31T10:19:21.248Z,97198.38
2022-07-31T10:22:13.169Z,97184.88
2022-07-31T10:24:48.456Z,97192.41
2022-07-31T10:27:19.344Z,97183.72
2022-07-31T10:29:54.060Z,97187.09
2022-07-31T10:32:23.196Z,97181.31
2022-07-31T10:35:14.367Z,97188.84
2022-07-31T10:38:24.385Z,97180.06
2022-07-31T10:41:36.856Z,97177.22
2022-07-31T10:44:16.612Z,97171.19
2022-07-31T10:47:16.878Z,97159.00
2022-07-31T10:50:08.610Z,97157.34
2022-07-31T10:53:12.176Z,97157.09
2022-07-31T10:56:11.196Z,97155.59
2022-07-31T10:58:59.848Z,97146.38
2022-07-31T11:01:53.122Z,97140.47
2022-07-31T11:04:43.145Z,97135.16
2022-07-31T11:07:35.787Z,97138.88
2022-07-31T11:10:21.038Z,97137.94
2022-07-31T11:13:15.366Z,97130.13
2022-07-31T11:16:07.597Z,97129.28
2022-07-31T11:19:16.025Z,97144.44
2022-07-31T11:21:46.382Z,97135.72
2022-07-31T11:24:22.857Z,97145.38
2022-07-31T11:27:18.378Z,97139.56
2022-07-31T11:29:59.210Z,97135.41
2022-07-31T11:32:36.712Z,97130.28
2022-07-31T11:35:06.697Z,97132.09
2022-07-31T11:37:56.327Z,97116.94
2022-07-31T11:40:28.411Z,97126.38
2022-07-31T11:43:25.359Z,97139.50
2022-07-31T11:45:51.846Z,97126.03
2022-07-31T11:48:21.139Z,97130.28
2022-07-31T11:50:50.357Z,97131.41
2022-07-31T11:53:19.191Z,97126.81
2022-07-31T11:56:11.451Z,97133.09
2022-07-31T11:58:50.263Z,97125.91
2022-07-31T12:01:18.883Z,97136.13
2022-07-31T12:03:47.551Z,97146.47
2022-07-31T12:06:20.713Z,97150.56
2022-07-31T12:08:52.758Z,97149.91
2022-07-31T12:11:24.308Z,97158.13
2022-07-31T12:13:54.538Z,97145.06
2022-07-31T12:16:23.006Z,97153.22
2022-07-31T12:19:02.079Z,97146.75
2022-07-31T12:21:33.618Z,97142.03
2022-07-31T12:24:02.445Z,97140.09
2022-07-31T12:26:34.159Z,97128.44
2022-07-31T12:29:08.496Z,97127.63
2022-07-31T12:32:08.050Z,97138.28
2022-07-31T12:34:41.054Z,97137.09
2022-07-31T12:37:17.329Z,97140.13
2022-07-31T12:40:00.982Z,97139.47
2022-07-31T12:42:37.571Z,97132.81
2022-07-31T12:45:19.591Z,97123.66
2022-07-31T12:47:51.576Z,97120.97
2022-07-31T12:50:25.672Z,97118.50
2022-07-31T12:52:55.908Z,97121.56
2022-07-31T12:55:26.145Z,97113.06
2022-07-31T12:57:58.145Z,97107.66
2022-07-31T13:00:29.112Z,97107.16
2022-07-31T13:02:59.680Z,97097.81
2022-07-31T13:05:29.893Z,97091.69
2022-07-31T13:07:58.941Z,97087.63
2022-07-31T13:10:32.251Z,97083.31
2022-07-31T13:13:01.106Z,97092.31
2022-07-31T13:15:30.499Z,97092.31
2022-07-31T13:18:00.009Z,97082.16
2022-07-31T13:20:31.562Z,97069.41
2022-07-31T13:23:00.064Z,97067.00
2022-07-31T13:25:30.653Z,97065.50
2022-07-31T13:27:59.431Z,97066.59
2022-07-31T13:30:29.296Z,97063.69
2022-07-31T13:32:57.832Z,97062.41
2022-07-31T13:35:28.840Z,97058.03
2022-07-31T13:37:58.172Z,97045.41
2022-07-31T13:40:45.144Z,97046.50
2022-07-31T13:43:15.995Z,97053.50
2022-07-31T13:45:44.482Z,97058.44
2022-07-31T13:48:13.869Z,97058.41
2022-07-31T13:50:43.225Z,97057.31
2022-07-31T13:53:11.626Z,97045.75
2022-07-31T13:55:40.084Z,97044.84
2022-07-31T13:58:10.021Z,97045.44
2022-07-31T14:00:40.601Z,97029.81
2022-07-31T14:03:09.295Z,97038.00
2022-07-31T14:05:40.423Z,97038.06
2022-07-31T14:08:31.769Z,97031.19
2022-07-31T14:10:58.475Z,97033.16
2022-07-31T14:13:29.690Z,97039.53
2022-07-31T14:15:58.270Z,97041.25
2022-07-31T14:18:27.626Z,97041.53
2022-07-31T14:20:56.100Z,97042.03
2022-07-31T14:23:34.143Z,97046.72
2022-07-31T14:26:05.566Z,97044.41
2022-07-31T14:28:34.218Z,97030.97
2022-07-31T14:31:02.719Z,97038.28
2022-07-31T14:33:32.307Z,97043.97
2022-07-31T14:36:00.882Z,97041.53
2022-07-31T14:38:29.728Z,97041.00
2022-07-31T14:40:58.223Z,97045.13
2022-07-31T14:43:27.278Z,97032.59
2022-07-31T14:45:56.108Z,97037.44
2022-07-31T14:48:24.541Z,97042.06
2022-07-31T14:50:58.446Z,97031.34
2022-07-31T14:53:27.157Z,97035.88
2022-07-31T14:55:55.738Z,97043.50
2022-07-31T14:58:32.518Z,97048.88
2022-07-31T15:01:21.044Z,97049.38
2022-07-31T15:03:50.015Z,97045.00
2022-07-31T15:06:41.138Z,97036.59
2022-07-31T15:09:09.623Z,97041.91
2022-07-31T15:11:58.388Z,97039.38
2022-07-31T15:14:26.502Z,97031.66
2022-07-31T15:16:55.040Z,97023.69
2022-07-31T15:19:23.515Z,97027.22
2022-07-31T15:22:11.223Z,97026.91
2022-07-31T15:24:49.180Z,97017.84
2022-07-31T15:27:21.110Z,97012.66
2022-07-31T15:30:00.728Z,97024.38
2022-07-31T15:32:39.044Z,97020.16
2022-07-31T15:35:09.701Z,97011.25
2022-07-31T15:37:39.307Z,97015.94
2022-07-31T15:40:10.142Z,97009.97
2022-07-31T15:42:42.166Z,96993.97
2022-07-31T15:45:12.986Z,97000.59
2022-07-31T15:47:43.508Z,96998.47
2022-07-31T15:50:13.423Z,96995.84
2022-07-31T15:52:42.067Z,97001.28
2022-07-31T15:55:12.003Z,96993.69
2022-07-31T15:57:40.536Z,96998.75
2022-07-31T16:00:15.493Z,97000.81
2022-07-31T16:02:45.568Z,97002.78
2022-07-31T16:05:20.039Z,97004.50
2022-07-31T16:08:32.747Z,96999.84
2022-07-31T16:10:41.536Z,97013.41
2022-07-31T16:13:10.063Z,97012.63
2022-07-31T16:15:38.637Z,97012.78
2022-07-31T16:18:07.390Z,97009.09
2022-07-31T16:20:38.402Z,97003.47
2022-07-31T16:23:06.954Z,97000.56
2022-07-31T16:25:35.643Z,97000.38
2022-07-31T16:28:05.081Z,97004.94
2022-07-31T16:30:33.676Z,97002.34
2022-07-31T16:33:02.256Z,97011.41
2022-07-31T16:35:30.959Z,97009.88
2022-07-31T16:38:00.842Z,97009.47
2022-07-31T16:40:32.009Z,97008.84
2022-07-31T16:43:02.118Z,97007.56
2022-07-31T16:45:54.115Z,97007.13
2022-07-31T16:48:22.744Z,96998.59
2022-07-31T16:50:54.132Z,97012.97
2022-07-31T16:53:34.622Z,97007.72
2022-07-31T16:56:13.865Z,97011.09
2022-07-31T16:58:42.500Z,97014.19
2022-07-31T17:01:56.718Z,97010.53
2022-07-31T17:04:03.904Z,97014.28
2022-07-31T17:06:40.778Z,97024.22
2022-07-31T17:09:17.446Z,97021.81
2022-07-31T17:11:53.827Z,97021.59
2022-07-31T17:14:26.028Z,97024.25
2022-07-31T17:16:55.075Z,97031.31
2022-07-31T17:19:41.202Z,97029.06
2022-07-31T17:22:17.857Z,97026.28
2022-07-31T17:24:51.262Z,97030.53
2022-07-31T17:27:20.305Z,97037.66
2022-07-31T17:29:48.825Z,97035.34
2022-07-31T17:32:17.937Z,97039.28
2022-07-31T17:34:46.659Z,97041.53
2022-07-31T17:37:18.300Z,97047.88
2022-07-31T17:39:49.069Z,97044.59
2022-07-31T17:42:23.535Z,97050.00
2022-07-31T17:44:55.024Z,97051.28
2022-07-31T17:47:26.116Z,97050.41
2022-07-31T17:49:54.747Z,97059.44
2022-07-31T17:52:23.664Z,97050.97
2022-07-31T17:54:52.764Z,97065.09
2022-07-31T17:57:23.723Z,97066.22
2022-07-31T17:59:54.084Z,97069.06
2022-07-31T18:02:23.050Z,97069.06
2022-07-31T18:04:51.672Z,97068.94
2022-07-31T18:07:22.426Z,97080.25
2022-07-31T18:09:51.342Z,97084.59
2022-07-31T18:12:21.136Z,97082.25
2022-07-31T18:14:51.092Z,97085.31
2022-07-31T18:17:21.468Z,97090.44
2022-07-31T18:19:49.959Z,97090.88
2022-07-31T18:22:20.033Z,97096.28
2022-07-31T18:24:48.834Z,97094.22
2022-07-31T18:27:17.328Z,97106.34
2022-07-31T18:29:51.573Z,97108.41
2022-07-31T18:32:26.650Z,97120.16
2022-07-31T18:34:59.471Z,97112.09
2022-07-31T18:37:28.821Z,97123.38
2022-07-31T18:40:00.777Z,97130.03
2022-07-31T18:42:32.241Z,97135.88
2022-07-31T18:45:03.181Z,97143.50
2022-07-31T18:47:31.661Z,97138.28
2022-07-31T18:50:59.456Z,97150.13
2022-07-31T18:52:49.128Z,97163.88
2022-07-31T18:55:17.623Z,97161.44
2022-07-31T18:57:46.863Z,97164.06
2022-07-31T19:00:15.578Z,97168.44
2022-07-31T19:02:46.958Z,97167.34
2022-07-31T19:05:21.665Z,97176.06
2022-07-31T19:07:51.187Z,97175.22
2022-07-31T19:10:29.405Z,97175.59
2022-07-31T19:13:01.127Z,97179.38
2022-07-31T19:15:29.643Z,97178.59
2022-07-31T19:18:01.804Z,97186.47
2022-07-31T19:20:40.443Z,97183.97
2022-07-31T19:23:22.331Z,97192.69
2022-07-31T19:26:04.156Z,97192.03
2022-07-31T19:28:35.410Z,97186.09
2022-07-31T19:31:09.288Z,97181.03
2022-07-31T19:33:39.198Z,97187.09
2022-07-31T19:36:16.886Z,97195.28
2022-07-31T19:38:51.404Z,97199.13
2022-07-31T19:41:23.473Z,97201.44
2022-07-31T19:44:02.383Z,97196.28
2022-07-31T19:46:34.550Z,97198.28
2022-07-31T19:49:12.133Z,97200.94
2022-07-31T19:51:56.241Z,97203.75
2022-07-31T19:54:27.646Z,97202.59
2022-07-31T19:56:59.096Z,97205.94
2022-07-31T19:59:32.239Z,97202.66
2022-07-31T20:02:00.889Z,97210.91
2022-07-31T20:04:29.469Z,97201.69
2022-07-31T20:06:58.050Z,97208.69
2022-07-31T20:09:26.755Z,97207.94
2022-07-31T20:11:55.504Z,97217.19
2022-07-31T20:14:24.100Z,97212.63
2022-07-31T20:16:53.372Z,97205.19
2022-07-31T20:19:21.897Z,97213.41
2022-07-31T20:21:52.203Z,97220.94
2022-07-31T20:24:21.321Z,97216.16
2022-07-31T20:26:52.553Z,97207.44
2022-07-31T20:29:21.316Z,97211.41
2022-07-31T20:31:52.132Z,97211.44
2022-07-31T20:34:24.251Z,97203.88
2022-07-31T20:37:01.360Z,97215.34
2022-07-31T20:39:33.984Z,97207.56
2022-07-31T20:42:03.616Z,97204.31
2022-07-31T20:44:40.963Z,97208.59
2022-07-31T20:47:12.463Z,97214.53
2022-07-31T20:49:41.166Z,97205.69
2022-07-31T20:52:09.753Z,97208.09
2022-07-31T20:54:38.411Z,97202.84
2022-07-31T20:57:07.230Z,97209.28
2022-07-31T20:59:35.750Z,97218.88
2022-07-31T21:02:04.498Z,97205.31
2022-07-31T21:04:32.969Z,97215.22
2022-07-31T21:07:02.340Z,97217.97
2022-07-31T21:09:32.404Z,97229.41
2022-07-31T21:12:03.136Z,97230.41
2022-07-31T21:14:31.744Z,97228.97
2022-07-31T21:17:02.660Z,97228.16
2022-07-31T21:19:31.290Z,97228.94
2022-07-31T21:21:59.813Z,97240.44
2022-07-31T21:24:28.431Z,97235.41
2022-07-31T21:26:58.048Z,97242.31
2022-07-31T21:29:27.549Z,97240.25
2022-07-31T21:31:57.963Z,97250.31
2022-07-31T21:34:26.781Z,97247.91
2022-07-31T21:36:55.277Z,97240.06
2022-07-31T21:39:26.108Z,97245.16
2022-07-31T21:41:54.858Z,97241.66
2022-07-31T21:44:23.364Z,97247.59
2022-07-31T21:46:55.476Z,97244.72
2022-07-31T21:49:26.129Z,97235.50
2022-07-31T21:51:54.764Z,97246.50
2022-07-31T21:54:23.246Z,97248.34
2022-07-31T21:56:51.587Z,97246.28
2022-07-31T21:59:20.048Z,97255.78
2022-07-31T22:02:08.126Z,97254.69
2022-07-31T22:04:56.572Z,97254.50
2022-07-31T22:07:34.092Z,97255.84
2022-07-31T22:10:03.649Z,97259.31
2022-07-31T22:12:32.034Z,97249.72
2022-07-31T22:15:00.418Z,97246.19
2022-07-31T22:17:28.815Z,97246.78
2022-07-31T22:20:00.357Z,97247.72
2022-07-31T22:22:30.270Z,97249.50
2022-07-31T22:24:59.322Z,97253.66
2022-07-31T22:27:49.209Z,97240.91
2022-07-31T22:30:18.260Z,97244.78
2022-07-31T22:32:50.419Z,97261.53
2022-07-31T22:35:21.769Z,97252.84
2022-07-31T22:37:50.331Z,97251.44
2022-07-31T22:40:19.624Z,97259.09
2022-07-31T22:42:56.072Z,97252.81
2022-07-31T22:45:26.367Z,97247.78
2022-07-31T22:47:54.755Z,97258.41
2022-07-31T22:50:23.343Z,97247.69
2022-07-31T22:52:51.898Z,97253.59
2022-07-31T22:55:21.231Z,97256.03
2022-07-31T22:57:49.812Z,97249.88
2022-07-31T23:00:19.281Z,97254.25
2022-07-31T23:02:48.513Z,97251.69
2022-07-31T23:05:16.994Z,97252.41
2022-07-31T23:07:45.537Z,97260.22
2022-07-31T23:10:13.893Z,97258.75
2022-07-31T23:12:42.329Z,97255.31
2022-07-31T23:15:10.733Z,97265.75
2022-07-31T23:17:39.147Z,97257.69
2022-07-31T23:20:08.078Z,97265.50
2022-07-31T23:22:36.593Z,97268.91
2022-07-31T23:25:05.582Z,97275.44
2022-07-31T23:27:34.041Z,97274.94
2022-07-31T23:30:02.445Z,97268.78
2022-07-31T23:32:30.885Z,97265.09
2022-07-31T23:34:59.303Z,97282.03
2022-07-31T23:37:27.673Z,97281.28
2022-07-31T23:39:56.031Z,97284.41
2022-07-31T23:42:39.382Z,97288.31
2022-07-31T23:45:12.469Z,97277.91
2022-07-31T23:47:45.454Z,97268.50
2022-07-31T23:50:15.379Z,97277.09
2022-07-31T23:52:44.067Z,97279.75
2022-07-31T23:55:12.838Z,97276.06
2022-07-31T23:57:41.556Z,97271.09
